Time;durP1;ratioP1;P1;durP2;ratioP2;P2;SDS_P1;SDS_P2;PMS_P1;PMS_P2;Temp;Humidity;BMP_temperature;BMP_pressure;BME280_temperature;BME280_humidity;BME280_pressure;Samples;Min_cycle;Max_cycle;Signal;HPM_P1;HPM_P2
2023/04/07 00:00:11;;;;;;;18.03;8.70;;;;;;;;;;4917735;29;20095;-77
2023/04/07 00:02:37;;;;;;;22.30;9.00;;;;;;;;;;4917565;29;20253;-77
2023/04/07 00:05:03;;;;;;;19.73;8.02;;;;;;;;;;4917438;29;20028;-77
2023/04/07 00:07:29;;;;;;;19.90;7.82;;;;;;;;;;4917322;29;20092;-76
2023/04/07 00:09:55;;;;;;;26.35;8.30;;;;;;;;;;4917212;29;20028;-76
2023/04/07 00:12:21;;;;;;;20.90;8.48;;;;;;;;;;4917154;29;20028;-77
2023/04/07 00:14:47;;;;;;;27.52;9.07;;;;;;;;;;4917083;29;20024;-77
2023/04/07 00:17:13;;;;;;;21.40;8.20;;;;;;;;;;4900094;29;20111;-77
2023/04/07 00:19:39;;;;;;;21.27;8.85;;;;;;;;;;4917031;29;20103;-77
2023/04/07 00:22:05;;;;;;;16.67;8.27;;;;;;;;;;4917115;29;20028;-77
2023/04/07 00:24:31;;;;;;;21.13;8.40;;;;;;;;;;4899976;29;20035;-77
2023/04/07 00:26:57;;;;;;;23.90;8.93;;;;;;;;;;4917004;29;20024;-76
2023/04/07 00:29:23;;;;;;;25.52;8.63;;;;;;;;;;4916824;29;20043;-77
2023/04/07 00:31:49;;;;;;;23.25;8.70;;;;;;;;;;4916870;29;20060;-77
2023/04/07 00:34:16;;;;;;;22.23;8.05;;;;;;;;;;4916760;29;20032;-77
2023/04/07 00:36:42;;;;;;;21.10;8.27;;;;;;;;;;4916857;29;20032;-76
2023/04/07 00:39:08;;;;;;;18.35;7.78;;;;;;;;;;4916750;29;20549;-77
2023/04/07 00:41:35;;;;;;;22.95;8.23;;;;;;;;;;4916793;29;20164;-77
2023/04/07 00:44:01;;;;;;;24.70;8.85;;;;;;;;;;4916802;29;20016;-77
2023/04/07 00:46:33;;;;;;;24.02;8.43;;;;;;;;;;4916597;29;20028;-77
2023/04/07 00:49:00;;;;;;;19.92;7.63;;;;;;;;;;4916701;29;20032;-77
2023/04/07 00:51:26;;;;;;;16.83;7.60;;;;;;;;;;4916649;29;20043;-77
2023/04/07 00:53:52;;;;;;;12.90;6.47;;;;;;;;;;4916498;29;20103;-77
2023/04/07 00:56:18;;;;;;;12.43;5.60;;;;;;;;;;4916453;29;20444;-77
2023/04/07 00:58:44;;;;;;;10.60;5.88;;;;;;;;;;4915548;29;20062;-77
2023/04/07 01:01:13;;;;;;;9.77;5.10;;;;;;;;;;4916756;29;20721;-77
2023/04/07 01:03:45;;;;;;;10.05;5.10;;;;;;;;;;4916353;29;20024;-76
2023/04/07 01:06:12;;;;;;;9.45;4.35;;;;;;;;;;4916322;29;20035;-77
2023/04/07 01:08:38;;;;;;;10.20;4.70;;;;;;;;;;4916394;29;20452;-76
2023/04/07 01:11:17;;;;;;;7.25;3.97;;;;;;;;;;4916291;29;20039;-76
2023/04/07 01:13:47;;;;;;;5.72;3.67;;;;;;;;;;4916326;29;20110;-76
2023/04/07 01:16:16;;;;;;;9.40;3.95;;;;;;;;;;4916230;29;20088;-76
2023/04/07 01:18:43;;;;;;;7.00;4.10;;;;;;;;;;4899148;29;20040;-76
2023/04/07 01:21:13;;;;;;;9.10;4.75;;;;;;;;;;4899161;29;20039;-76
2023/04/07 01:24:00;;;;;;;12.07;5.00;;;;;;;;;;4916222;29;20079;-76
2023/04/07 01:26:30;;;;;;;12.00;5.40;;;;;;;;;;4922310;29;20032;-77
2023/04/07 01:28:59;;;;;;;11.15;5.20;;;;;;;;;;4922490;29;20020;-77
2023/04/07 01:31:26;;;;;;;13.10;5.68;;;;;;;;;;4922654;29;20032;-77
2023/04/07 01:33:53;;;;;;;9.93;5.15;;;;;;;;;;4922773;29;20028;-76
2023/04/07 01:36:20;;;;;;;11.57;4.97;;;;;;;;;;4922472;29;20074;-77
2023/04/07 01:38:48;;;;;;;15.13;4.88;;;;;;;;;;4922428;29;20044;-76
2023/04/07 01:41:14;;;;;;;12.75;4.72;;;;;;;;;;4922393;29;20083;-77
2023/04/07 01:43:41;;;;;;;17.10;5.32;;;;;;;;;;4922311;29;20028;-77
2023/04/07 01:46:07;;;;;;;17.50;5.53;;;;;;;;;;4905247;29;20027;-76
2023/04/07 01:48:34;;;;;;;12.82;5.00;;;;;;;;;;4922360;29;20107;-77
2023/04/07 01:51:00;;;;;;;16.90;6.43;;;;;;;;;;4922238;29;20375;-76
2023/04/07 01:53:26;;;;;;;16.35;6.03;;;;;;;;;;4922279;29;20028;-76
2023/04/07 01:55:54;;;;;;;20.25;6.70;;;;;;;;;;4905384;29;20038;-76
2023/04/07 01:58:20;;;;;;;21.48;5.72;;;;;;;;;;4921878;29;20108;-77
2023/04/07 02:00:46;;;;;;;17.13;6.40;;;;;;;;;;4922182;29;20036;-77
2023/04/07 02:03:20;;;;;;;24.10;6.78;;;;;;;;;;4922282;29;20104;-77
2023/04/07 02:05:47;;;;;;;16.45;7.13;;;;;;;;;;4922498;29;20024;-76
2023/04/07 02:08:15;;;;;;;26.23;7.60;;;;;;;;;;4922354;29;20092;-77
2023/04/07 02:10:42;;;;;;;19.48;7.22;;;;;;;;;;4922240;29;20479;-77
2023/04/07 02:13:09;;;;;;;16.23;7.00;;;;;;;;;;4922208;29;20040;-77
2023/04/07 02:15:36;;;;;;;20.75;7.47;;;;;;;;;;4922160;29;20017;-77
2023/04/07 02:18:03;;;;;;;19.23;6.90;;;;;;;;;;4922026;29;20391;-77
2023/04/07 02:20:29;;;;;;;20.23;7.15;;;;;;;;;;4922069;29;20028;-77
2023/04/07 02:22:55;;;;;;;21.73;6.70;;;;;;;;;;4921921;29;20024;-77
2023/04/07 02:25:28;;;;;;;20.83;6.70;;;;;;;;;;4922026;29;20361;-76
2023/04/07 02:28:01;;;;;;;15.43;6.72;;;;;;;;;;4922044;29;20063;-77
2023/04/07 02:30:28;;;;;;;18.08;7.95;;;;;;;;;;4921904;29;20089;-77
2023/04/07 02:32:55;;;;;;;18.95;7.68;;;;;;;;;;4924149;29;20026;-77
2023/04/07 02:35:21;;;;;;;20.50;8.15;;;;;;;;;;4940922;29;20031;-76
2023/04/07 02:37:47;;;;;;;18.55;8.02;;;;;;;;;;4936997;29;20412;-77
2023/04/07 02:40:13;;;;;;;18.40;6.85;;;;;;;;;;4937903;29;20059;-77
2023/04/07 02:42:39;;;;;;;21.05;6.95;;;;;;;;;;4937893;29;20059;-76
2023/04/07 02:45:06;;;;;;;31.33;8.77;;;;;;;;;;4938038;29;20028;-77
2023/04/07 02:47:35;;;;;;;25.02;7.50;;;;;;;;;;4937738;29;20115;-77
2023/04/07 02:50:01;;;;;;;16.67;6.67;;;;;;;;;;4937871;29;20043;-77
2023/04/07 02:52:27;;;;;;;21.95;7.10;;;;;;;;;;4937398;29;20335;-76
2023/04/07 02:54:53;;;;;;;20.17;7.65;;;;;;;;;;4937570;29;20111;-77
2023/04/07 02:57:19;;;;;;;21.75;7.60;;;;;;;;;;4936972;29;20039;-77
2023/04/07 02:59:45;;;;;;;20.88;7.90;;;;;;;;;;4937564;29;20110;-77
2023/04/07 03:02:11;;;;;;;25.65;7.85;;;;;;;;;;4937519;29;20531;-77
2023/04/07 03:04:37;;;;;;;31.08;8.15;;;;;;;;;;4937526;29;20027;-76
2023/04/07 03:07:03;;;;;;;23.90;7.82;;;;;;;;;;4937432;29;20031;-77
2023/04/07 03:09:29;;;;;;;23.77;7.45;;;;;;;;;;4937422;29;20128;-77
2023/04/07 03:11:55;;;;;;;27.42;8.43;;;;;;;;;;4937263;29;20031;-77
2023/04/07 03:14:21;;;;;;;28.35;8.65;;;;;;;;;;4937393;29;20059;-77
2023/04/07 03:16:47;;;;;;;33.97;8.70;;;;;;;;;;4937201;29;20438;-77
2023/04/07 03:19:15;;;;;;;32.90;8.85;;;;;;;;;;4937199;29;20036;-77
2023/04/07 03:21:41;;;;;;;34.53;9.32;;;;;;;;;;4937437;29;20028;-77
2023/04/07 03:24:07;;;;;;;27.17;8.80;;;;;;;;;;4937377;29;20027;-77
2023/04/07 03:26:33;;;;;;;41.92;11.02;;;;;;;;;;4936969;29;20478;-76
2023/04/07 03:28:59;;;;;;;39.95;11.52;;;;;;;;;;4936864;29;20470;-77
2023/04/07 03:31:25;;;;;;;35.88;10.90;;;;;;;;;;4937010;29;20024;-77
2023/04/07 03:33:51;;;;;;;54.80;11.77;;;;;;;;;;4937194;29;20028;-77
2023/04/07 03:36:18;;;;;;;62.30;12.45;;;;;;;;;;4936870;29;20034;-76
2023/04/07 03:38:44;;;;;;;44.72;11.05;;;;;;;;;;4937111;29;20048;-76
2023/04/07 03:41:10;;;;;;;32.65;10.85;;;;;;;;;;4936863;29;20028;-77
2023/04/07 03:43:36;;;;;;;33.78;10.60;;;;;;;;;;4936744;29;20031;-77
2023/04/07 03:46:02;;;;;;;32.95;12.35;;;;;;;;;;4936743;29;20605;-77
2023/04/07 03:48:28;;;;;;;32.60;11.02;;;;;;;;;;4936376;29;20067;-77
2023/04/07 03:50:54;;;;;;;39.60;12.82;;;;;;;;;;4936660;29;20091;-77
2023/04/07 03:53:20;;;;;;;31.02;12.25;;;;;;;;;;4936599;29;20028;-76
2023/04/07 03:55:47;;;;;;;33.15;13.10;;;;;;;;;;4936730;29;20034;-77
2023/04/07 03:58:13;;;;;;;33.13;12.63;;;;;;;;;;4935676;29;20059;-77
2023/04/07 04:00:39;;;;;;;35.97;13.73;;;;;;;;;;4936458;29;20039;-77
2023/04/07 04:03:05;;;;;;;33.67;14.23;;;;;;;;;;4919335;29;20038;-76
2023/04/07 04:05:31;;;;;;;27.25;12.43;;;;;;;;;;4936262;29;20027;-77
2023/04/07 04:07:57;;;;;;;31.95;14.23;;;;;;;;;;4919224;29;20031;-77
2023/04/07 04:10:23;;;;;;;34.28;14.55;;;;;;;;;;4936194;29;20491;-77
2023/04/07 04:12:49;;;;;;;29.02;13.15;;;;;;;;;;4936141;29;20028;-77
2023/04/07 04:15:15;;;;;;;28.05;12.75;;;;;;;;;;4936096;29;20107;-77
2023/04/07 04:17:41;;;;;;;30.52;13.70;;;;;;;;;;4936002;29;20498;-77
2023/04/07 04:20:08;;;;;;;29.98;12.65;;;;;;;;;;4936008;29;20020;-77
2023/04/07 04:22:34;;;;;;;36.70;13.10;;;;;;;;;;4936003;29;20464;-77
2023/04/07 04:25:00;;;;;;;33.72;13.60;;;;;;;;;;4936116;29;20079;-76
2023/04/07 04:27:27;;;;;;;33.40;11.40;;;;;;;;;;4936001;29;20023;-77
2023/04/07 04:29:53;;;;;;;31.65;11.45;;;;;;;;;;4935801;29;20032;-77
2023/04/07 04:32:20;;;;;;;38.05;10.45;;;;;;;;;;4935815;29;20035;-77
2023/04/07 04:34:46;;;;;;;41.67;12.32;;;;;;;;;;4935847;29;20023;-77
2023/04/07 04:37:12;;;;;;;38.63;11.90;;;;;;;;;;4935751;29;20365;-77
2023/04/07 04:39:38;;;;;;;47.72;12.13;;;;;;;;;;4935627;29;20028;-77
2023/04/07 04:42:05;;;;;;;42.00;12.13;;;;;;;;;;4935443;29;20028;-77
2023/04/07 04:44:31;;;;;;;53.03;13.43;;;;;;;;;;4935394;29;20451;-77
2023/04/07 04:46:57;;;;;;;58.22;14.05;;;;;;;;;;4935947;29;20086;-77
2023/04/07 04:49:23;;;;;;;51.88;13.55;;;;;;;;;;4935681;29;20042;-77
2023/04/07 04:51:49;;;;;;;42.30;11.57;;;;;;;;;;4935671;29;20032;-77
2023/04/07 04:54:16;;;;;;;83.45;13.55;;;;;;;;;;4935909;29;20456;-77
2023/04/07 04:56:42;;;;;;;45.72;11.55;;;;;;;;;;4935613;29;20031;-76
2023/04/07 04:59:08;;;;;;;52.50;12.90;;;;;;;;;;4934833;29;20079;-77
2023/04/07 05:01:34;;;;;;;48.40;11.60;;;;;;;;;;4935418;29;20079;-77
2023/04/07 05:04:00;;;;;;;55.50;12.60;;;;;;;;;;4935606;29;20356;-77
2023/04/07 05:06:26;;;;;;;92.15;14.52;;;;;;;;;;4935419;29;20367;-77
2023/04/07 05:08:52;;;;;;;45.53;13.07;;;;;;;;;;4935616;29;20028;-77
2023/04/07 05:11:20;;;;;;;39.30;11.48;;;;;;;;;;4935258;29;20024;-77
2023/04/07 05:13:46;;;;;;;48.83;13.70;;;;;;;;;;4935521;29;20028;-77
2023/04/07 05:16:12;;;;;;;55.58;15.38;;;;;;;;;;4935148;29;20035;-77
2023/04/07 05:18:38;;;;;;;47.05;13.95;;;;;;;;;;4935428;29;20460;-77
2023/04/07 05:21:04;;;;;;;53.63;14.63;;;;;;;;;;4935187;29;20031;-77
2023/04/07 05:23:30;;;;;;;48.42;14.80;;;;;;;;;;4935221;29;20083;-77
2023/04/07 05:25:56;;;;;;;55.42;14.02;;;;;;;;;;4935309;29;20047;-77
2023/04/07 05:28:22;;;;;;;53.55;15.30;;;;;;;;;;4934816;29;20728;-77
2023/04/07 05:30:48;;;;;;;50.35;13.65;;;;;;;;;;4935217;29;20448;-77
2023/04/07 05:33:14;;;;;;;47.60;12.98;;;;;;;;;;4934622;29;20083;-77
2023/04/07 05:35:40;;;;;;;54.88;13.55;;;;;;;;;;4934792;29;20439;-77
2023/04/07 05:38:07;;;;;;;55.60;14.25;;;;;;;;;;4917736;29;20471;-76
2023/04/07 05:40:33;;;;;;;60.90;14.13;;;;;;;;;;4935291;29;20107;-77
2023/04/07 05:42:59;;;;;;;46.38;13.57;;;;;;;;;;4934912;29;20115;-77
2023/04/07 05:45:25;;;;;;;53.72;14.20;;;;;;;;;;4934738;29;20028;-77
2023/04/07 05:47:51;;;;;;;57.38;14.95;;;;;;;;;;4917723;29;20398;-77
2023/04/07 05:50:17;;;;;;;101.88;18.25;;;;;;;;;;4935241;29;20051;-77
2023/04/07 05:52:43;;;;;;;68.15;15.68;;;;;;;;;;4934977;29;20095;-77
2023/04/07 05:55:09;;;;;;;97.65;17.00;;;;;;;;;;4927565;29;20506;-77
2023/04/07 05:57:35;;;;;;;52.53;15.13;;;;;;;;;;4920968;29;20035;-78
2023/04/07 06:00:02;;;;;;;56.45;15.40;;;;;;;;;;4925900;29;20483;-77
2023/04/07 06:02:28;;;;;;;56.75;14.80;;;;;;;;;;4926502;29;20107;-77
2023/04/07 06:04:55;;;;;;;112.85;16.48;;;;;;;;;;4919846;29;20552;-77
2023/04/07 06:07:21;;;;;;;61.50;14.30;;;;;;;;;;4916047;29;20052;-77
2023/04/07 06:09:47;;;;;;;80.80;15.30;;;;;;;;;;4916164;29;20364;-77
2023/04/07 06:12:14;;;;;;;66.43;15.02;;;;;;;;;;4919220;29;20111;-77
2023/04/07 06:14:40;;;;;;;132.80;15.95;;;;;;;;;;4919409;29;20026;-77
2023/04/07 06:17:12;;;;;;;55.22;14.30;;;;;;;;;;4925137;29;20026;-77
2023/04/07 06:19:39;;;;;;;60.88;14.20;;;;;;;;;;4938194;29;20032;-77
2023/04/07 06:22:05;;;;;;;49.70;16.35;;;;;;;;;;4938225;29;20027;-77
2023/04/07 06:24:31;;;;;;;63.13;16.23;;;;;;;;;;4938094;29;20035;-77
2023/04/07 06:26:57;;;;;;;43.85;14.82;;;;;;;;;;4938165;29;20061;-77
2023/04/07 06:29:23;;;;;;;49.08;13.52;;;;;;;;;;4938382;29;20028;-77
2023/04/07 06:31:49;;;;;;;41.47;11.10;;;;;;;;;;4936907;29;20102;-77
2023/04/07 06:34:15;;;;;;;32.15;9.43;;;;;;;;;;4930383;29;20049;-77
2023/04/07 06:36:41;;;;;;;35.00;9.25;;;;;;;;;;4902011;29;20399;-77
2023/04/07 06:39:07;;;;;;;41.65;10.45;;;;;;;;;;4918920;29;20530;-77
2023/04/07 06:41:34;;;;;;;40.63;11.63;;;;;;;;;;4919127;29;20029;-77
2023/04/07 06:44:00;;;;;;;47.22;11.75;;;;;;;;;;4919135;29;20066;-77
2023/04/07 06:46:26;;;;;;;46.83;12.18;;;;;;;;;;4918815;29;20055;-77
2023/04/07 06:48:52;;;;;;;54.22;12.80;;;;;;;;;;4918838;29;20033;-77
2023/04/07 06:51:18;;;;;;;76.63;13.48;;;;;;;;;;4918986;29;20028;-77
2023/04/07 06:53:44;;;;;;;74.72;13.70;;;;;;;;;;4918734;29;20156;-77
2023/04/07 06:56:11;;;;;;;74.00;13.80;;;;;;;;;;4918765;29;20384;-77
2023/04/07 06:58:37;;;;;;;47.35;13.25;;;;;;;;;;4918124;29;20052;-77
2023/04/07 07:01:05;;;;;;;72.07;16.73;;;;;;;;;;4918742;29;20534;-77
2023/04/07 07:03:32;;;;;;;62.38;15.07;;;;;;;;;;4919556;29;20025;-77
2023/04/07 07:05:58;;;;;;;52.38;15.30;;;;;;;;;;4928539;29;20020;-77
2023/04/07 07:08:25;;;;;;;60.33;15.48;;;;;;;;;;4926201;29;20024;-77
2023/04/07 07:10:51;;;;;;;50.80;15.45;;;;;;;;;;4926700;29;20031;-77
2023/04/07 07:13:25;;;;;;;51.22;14.38;;;;;;;;;;4926241;29;20024;-78
2023/04/07 07:15:51;;;;;;;44.75;16.27;;;;;;;;;;4923793;29;20020;-77
2023/04/07 07:18:18;;;;;;;82.72;15.27;;;;;;;;;;4928362;29;20040;-77
2023/04/07 07:20:44;;;;;;;44.20;15.07;;;;;;;;;;4930040;29;20455;-77
2023/04/07 07:23:10;;;;;;;40.10;14.77;;;;;;;;;;4930130;29;20032;-77
2023/04/07 07:25:36;;;;;;;55.17;14.90;;;;;;;;;;4925200;29;20035;-77
2023/04/07 07:28:02;;;;;;;49.60;14.10;;;;;;;;;;4921708;29;20032;-77
2023/04/07 07:30:28;;;;;;;36.38;12.32;;;;;;;;;;4917964;29;20050;-78
2023/04/07 07:32:55;;;;;;;39.92;13.55;;;;;;;;;;4925460;29;20028;-77
2023/04/07 07:35:21;;;;;;;25.88;12.00;;;;;;;;;;4920344;29;20055;-77
2023/04/07 07:37:47;;;;;;;17.85;10.85;;;;;;;;;;4921568;29;20056;-77
2023/04/07 07:40:14;;;;;;;19.23;11.45;;;;;;;;;;4926016;29;20055;-77
2023/04/07 07:42:40;;;;;;;19.05;10.30;;;;;;;;;;4930401;29;20386;-77
2023/04/07 07:45:06;;;;;;;19.63;11.35;;;;;;;;;;4930172;29;20468;-77
2023/04/07 07:47:32;;;;;;;19.15;11.05;;;;;;;;;;4920894;29;20039;-77
2023/04/07 07:49:58;;;;;;;18.63;10.52;;;;;;;;;;4928721;29;20019;-77
2023/04/07 07:52:24;;;;;;;16.90;10.15;;;;;;;;;;4919159;29;20032;-77
2023/04/07 07:54:51;;;;;;;17.70;10.85;;;;;;;;;;4918188;29;20115;-77
2023/04/07 07:57:18;;;;;;;20.83;10.40;;;;;;;;;;4922909;29;20376;-77
2023/04/07 07:59:45;;;;;;;16.48;10.70;;;;;;;;;;4923337;29;20051;-77
2023/04/07 08:02:11;;;;;;;18.77;11.05;;;;;;;;;;4924939;29;20475;-77
2023/04/07 08:04:37;;;;;;;17.40;11.50;;;;;;;;;;4923566;29;20506;-77
2023/04/07 08:07:03;;;;;;;15.95;9.52;;;;;;;;;;4925258;29;20419;-77
2023/04/07 08:09:31;;;;;;;16.10;10.43;;;;;;;;;;4924743;29;20035;-77
2023/04/07 08:11:57;;;;;;;17.80;11.18;;;;;;;;;;4923833;29;20032;-77
2023/04/07 08:14:23;;;;;;;15.10;9.65;;;;;;;;;;4924785;29;20031;-77
2023/04/07 08:16:49;;;;;;;16.35;10.48;;;;;;;;;;4917743;29;20027;-77
2023/04/07 08:19:15;;;;;;;16.80;10.27;;;;;;;;;;4935715;29;20070;-77
2023/04/07 08:21:41;;;;;;;15.88;10.25;;;;;;;;;;4953314;29;20771;-78
2023/04/07 08:24:09;;;;;;;16.77;10.50;;;;;;;;;;4926476;29;20024;-78
2023/04/07 08:26:35;;;;;;;19.45;11.82;;;;;;;;;;4923485;29;20031;-78
2023/04/07 08:29:01;;;;;;;16.45;9.32;;;;;;;;;;4925079;29;20335;-78
2023/04/07 08:31:27;;;;;;;17.90;10.68;;;;;;;;;;4925708;29;20111;-78
2023/04/07 08:33:56;;;;;;;17.13;9.75;;;;;;;;;;4928722;29;20034;-78
2023/04/07 08:36:24;;;;;;;15.30;9.57;;;;;;;;;;4934775;29;20099;-77
2023/04/07 08:38:50;;;;;;;15.85;10.18;;;;;;;;;;4934631;29;20031;-78
2023/04/07 08:41:17;;;;;;;15.52;9.73;;;;;;;;;;4932785;29;20019;-78
2023/04/07 08:43:45;;;;;;;17.52;10.98;;;;;;;;;;4932760;29;20091;-77
2023/04/07 08:46:12;;;;;;;15.20;9.43;;;;;;;;;;4931478;29;20072;-78
2023/04/07 08:48:38;;;;;;;18.25;10.10;;;;;;;;;;4911300;29;20059;-79
2023/04/07 08:51:05;;;;;;;17.58;10.23;;;;;;;;;;4925097;29;20024;-79
2023/04/07 08:53:49;;;;;;;14.98;9.50;;;;;;;;;;4932197;29;20035;-78
2023/04/07 08:56:16;;;;;;;17.00;10.30;;;;;;;;;;4933589;29;20108;-79
2023/04/07 08:58:42;;;;;;;15.55;9.15;;;;;;;;;;4943456;28;20047;-78
2023/04/07 09:01:08;;;;;;;16.48;11.82;;;;;;;;;;4930135;29;20494;-78
2023/04/07 09:03:34;;;;;;;19.13;11.57;;;;;;;;;;4920540;29;20058;-79
2023/04/07 09:06:01;;;;;;;19.92;10.73;;;;;;;;;;4932818;29;20035;-79
2023/04/07 09:08:27;;;;;;;18.23;11.93;;;;;;;;;;4932009;29;20074;-78
2023/04/07 09:10:53;;;;;;;16.75;11.40;;;;;;;;;;4932633;29;20031;-79
2023/04/07 09:13:20;;;;;;;16.23;11.20;;;;;;;;;;4915179;29;20126;-79
2023/04/07 09:15:46;;;;;;;19.70;11.43;;;;;;;;;;4914552;29;20043;-79
2023/04/07 09:18:13;;;;;;;15.02;10.40;;;;;;;;;;4931591;29;20514;-78
2023/04/07 09:20:58;;;;;;;17.83;10.73;;;;;;;;;;4931246;29;20047;-79
2023/04/07 09:23:32;;;;;;;17.17;10.07;;;;;;;;;;4931000;29;20039;-79
2023/04/07 09:25:58;;;;;;;16.30;10.18;;;;;;;;;;4932259;29;20030;-78
2023/04/07 09:28:25;;;;;;;17.45;11.70;;;;;;;;;;4932833;29;20032;-78
2023/04/07 09:30:54;;;;;;;20.30;11.65;;;;;;;;;;4930803;29;20058;-79
2023/04/07 09:33:27;;;;;;;18.00;11.43;;;;;;;;;;4932148;29;20024;-78
2023/04/07 09:35:53;;;;;;;17.00;10.57;;;;;;;;;;4931972;29;20024;-78
2023/04/07 09:38:19;;;;;;;16.50;9.98;;;;;;;;;;4928820;29;20131;-78
2023/04/07 09:40:47;;;;;;;17.52;10.82;;;;;;;;;;4931759;29;20040;-78
2023/04/07 09:43:17;;;;;;;17.52;11.02;;;;;;;;;;4929439;29;20227;-79
2023/04/07 09:45:43;;;;;;;17.50;10.32;;;;;;;;;;4932470;29;20023;-79
2023/04/07 09:48:20;;;;;;;17.50;9.90;;;;;;;;;;4935889;29;20025;-79
2023/04/07 09:50:48;;;;;;;15.93;9.23;;;;;;;;;;4935710;29;20039;-78
2023/04/07 09:53:15;;;;;;;16.05;10.10;;;;;;;;;;4936388;29;20012;-79
2023/04/07 09:55:42;;;;;;;14.32;8.43;;;;;;;;;;4938843;29;20374;-79
2023/04/07 09:58:08;;;;;;;11.90;8.05;;;;;;;;;;4937012;29;20062;-79
2023/04/07 10:00:35;;;;;;;15.07;9.43;;;;;;;;;;4937556;29;20035;-79
2023/04/07 10:03:03;;;;;;;14.27;8.70;;;;;;;;;;4938091;29;20083;-79
2023/04/07 10:05:29;;;;;;;14.73;8.05;;;;;;;;;;4937976;29;20051;-79
2023/04/07 10:07:55;;;;;;;10.10;7.18;;;;;;;;;;4920815;29;20204;-79
2023/04/07 10:10:21;;;;;;;12.88;8.45;;;;;;;;;;4937591;29;20062;-79
2023/04/07 10:12:49;;;;;;;12.10;8.38;;;;;;;;;;4937588;29;20269;-79
2023/04/07 10:15:15;;;;;;;12.18;8.32;;;;;;;;;;4937818;29;20032;-79
2023/04/07 10:17:48;;;;;;;10.00;7.32;;;;;;;;;;4936881;29;20086;-79
2023/04/07 10:20:14;;;;;;;10.13;7.35;;;;;;;;;;4936505;29;20036;-79
2023/04/07 10:22:41;;;;;;;9.85;6.88;;;;;;;;;;4937266;29;20115;-79
2023/04/07 10:25:10;;;;;;;9.90;7.10;;;;;;;;;;4937141;29;20491;-79
2023/04/07 10:27:41;;;;;;;9.20;6.63;;;;;;;;;;4937335;29;20483;-79
2023/04/07 10:30:13;;;;;;;8.05;5.82;;;;;;;;;;4930471;29;20028;-79
2023/04/07 10:32:49;;;;;;;8.02;5.32;;;;;;;;;;4937220;29;20039;-79
2023/04/07 10:35:16;;;;;;;8.32;5.88;;;;;;;;;;4920509;29;20035;-79
2023/04/07 10:38:01;;;;;;;7.43;5.47;;;;;;;;;;4920191;29;20371;-79
2023/04/07 10:40:28;;;;;;;8.90;6.30;;;;;;;;;;4937697;29;20039;-79
2023/04/07 10:42:55;;;;;;;8.52;6.43;;;;;;;;;;4940360;29;20423;-79
2023/04/07 10:45:41;;;;;;;10.48;7.47;;;;;;;;;;4920584;29;20024;-79
2023/04/07 10:48:11;;;;;;;11.48;7.57;;;;;;;;;;4942384;29;20020;-79
2023/04/07 10:50:37;;;;;;;8.43;6.43;;;;;;;;;;4943069;29;20583;-79
2023/04/07 10:53:07;;;;;;;7.78;5.95;;;;;;;;;;4924291;29;20420;-78
2023/04/07 10:55:33;;;;;;;8.18;6.50;;;;;;;;;;4938310;29;20431;-77
2023/04/07 10:58:14;;;;;;;9.85;6.90;;;;;;;;;;4936333;29;20530;-78
2023/04/07 11:00:40;;;;;;;12.98;8.98;;;;;;;;;;4938719;29;20035;-78
2023/04/07 11:03:11;;;;;;;11.02;8.68;;;;;;;;;;4938586;29;20038;-78
2023/04/07 11:05:38;;;;;;;11.45;8.40;;;;;;;;;;4941245;29;20024;-78
2023/04/07 11:08:06;;;;;;;9.50;6.93;;;;;;;;;;4930157;29;20027;-79
2023/04/07 11:10:32;;;;;;;13.82;10.07;;;;;;;;;;4940357;29;20025;-79
2023/04/07 11:13:03;;;;;;;13.40;8.88;;;;;;;;;;4941688;29;20024;-79
2023/04/07 11:15:29;;;;;;;15.07;10.63;;;;;;;;;;4941785;29;20039;-79
2023/04/07 11:18:15;;;;;;;14.00;10.73;;;;;;;;;;4924443;29;20038;-79
2023/04/07 11:20:45;;;;;;;15.95;11.13;;;;;;;;;;4940964;29;20129;-79
2023/04/07 11:23:12;;;;;;;20.23;12.50;;;;;;;;;;4935922;29;20038;-79
2023/04/07 11:25:38;;;;;;;17.27;11.60;;;;;;;;;;4941853;29;20123;-79
2023/04/07 11:28:04;;;;;;;16.92;10.63;;;;;;;;;;4934991;29;20549;-79
2023/04/07 11:30:30;;;;;;;17.60;11.90;;;;;;;;;;4920112;29;20046;-79
2023/04/07 11:32:59;;;;;;;21.40;13.40;;;;;;;;;;4927335;29;20065;-79
2023/04/07 11:35:25;;;;;;;19.08;12.55;;;;;;;;;;4940933;29;20031;-79
2023/04/07 11:37:57;;;;;;;18.52;12.52;;;;;;;;;;4940085;29;20059;-78
2023/04/07 11:40:33;;;;;;;18.15;12.40;;;;;;;;;;4939436;29;20023;-79
2023/04/07 11:43:16;;;;;;;19.70;11.82;;;;;;;;;;4936984;29;20031;-78
2023/04/07 11:45:42;;;;;;;16.65;12.73;;;;;;;;;;4940572;29;20075;-79
2023/04/07 11:48:29;;;;;;;15.80;10.45;;;;;;;;;;4937444;29;20028;-78
2023/04/07 11:50:55;;;;;;;15.02;10.65;;;;;;;;;;4942522;29;20074;-78
2023/04/07 11:53:34;;;;;;;16.10;10.63;;;;;;;;;;4938023;29;20020;-79
2023/04/07 11:56:05;;;;;;;14.57;9.95;;;;;;;;;;4940360;29;20423;-78
2023/04/07 11:58:31;;;;;;;12.32;9.88;;;;;;;;;;4938766;29;20052;-79
2023/04/07 12:01:04;;;;;;;13.18;9.55;;;;;;;;;;4936911;29;20024;-78
2023/04/07 12:03:31;;;;;;;14.38;9.88;;;;;;;;;;4933716;29;20027;-79
2023/04/07 12:05:57;;;;;;;13.13;9.95;;;;;;;;;;4926068;29;20026;-79
2023/04/07 12:08:36;;;;;;;12.35;9.63;;;;;;;;;;4933064;29;20031;-78
2023/04/07 12:11:03;;;;;;;14.98;10.30;;;;;;;;;;4933032;29;20055;-79
2023/04/07 12:13:29;;;;;;;13.55;10.32;;;;;;;;;;4934064;29;20071;-79
2023/04/07 12:15:55;;;;;;;14.32;11.52;;;;;;;;;;4917291;29;20019;-79
2023/04/07 12:18:21;;;;;;;13.57;10.00;;;;;;;;;;4934227;29;20036;-78
2023/04/07 12:20:47;;;;;;;16.33;10.65;;;;;;;;;;4935233;29;20034;-78
2023/04/07 12:23:13;;;;;;;13.07;9.98;;;;;;;;;;4934297;29;20066;-79
2023/04/07 12:25:39;;;;;;;14.05;9.50;;;;;;;;;;4920837;29;20055;-78
2023/04/07 12:28:05;;;;;;;13.13;9.27;;;;;;;;;;4901340;29;20490;-78
2023/04/07 12:30:31;;;;;;;14.15;10.38;;;;;;;;;;4935054;29;20028;-79
2023/04/07 12:32:57;;;;;;;15.25;11.25;;;;;;;;;;4937381;29;20024;-79
2023/04/07 12:35:24;;;;;;;13.68;10.55;;;;;;;;;;4936430;29;20032;-79
2023/04/07 12:37:51;;;;;;;18.23;11.50;;;;;;;;;;4935794;29;20426;-78
2023/04/07 12:40:17;;;;;;;15.40;10.70;;;;;;;;;;4934464;29;20375;-78
2023/04/07 12:42:44;;;;;;;16.65;11.57;;;;;;;;;;4934797;29;20538;-78
2023/04/07 12:45:10;;;;;;;15.68;10.13;;;;;;;;;;4931267;29;20110;-79
2023/04/07 12:47:36;;;;;;;13.00;8.98;;;;;;;;;;4932219;29;20028;-78
2023/04/07 12:50:02;;;;;;;13.52;10.02;;;;;;;;;;4935972;29;20036;-79
2023/04/07 12:52:28;;;;;;;13.45;9.40;;;;;;;;;;4935551;29;20083;-79
2023/04/07 12:54:55;;;;;;;12.98;8.65;;;;;;;;;;4935597;29;20020;-79
2023/04/07 12:57:21;;;;;;;9.98;6.68;;;;;;;;;;4932919;29;20487;-79
2023/04/07 12:59:48;;;;;;;11.60;7.18;;;;;;;;;;4931884;29;20511;-78
2023/04/07 13:02:16;;;;;;;10.02;7.10;;;;;;;;;;4932545;29;20095;-78
2023/04/07 13:04:45;;;;;;;10.65;8.07;;;;;;;;;;4932524;29;20023;-78
2023/04/07 13:07:11;;;;;;;10.23;7.25;;;;;;;;;;4913294;29;20393;-79
2023/04/07 13:09:37;;;;;;;13.02;7.43;;;;;;;;;;4915468;29;20086;-78
2023/04/07 13:12:04;;;;;;;9.52;6.88;;;;;;;;;;4915098;29;20100;-78
2023/04/07 13:14:30;;;;;;;9.50;6.35;;;;;;;;;;4932296;29;20033;-78
2023/04/07 13:16:56;;;;;;;9.05;7.22;;;;;;;;;;4932894;29;20036;-78
2023/04/07 13:19:22;;;;;;;10.57;7.53;;;;;;;;;;4932205;29;20079;-78
2023/04/07 13:21:48;;;;;;;9.93;7.30;;;;;;;;;;4912263;29;20387;-78
2023/04/07 13:24:14;;;;;;;10.68;7.28;;;;;;;;;;4932550;29;20026;-78
2023/04/07 13:26:40;;;;;;;9.55;7.18;;;;;;;;;;4932353;29;20020;-78
2023/04/07 13:29:06;;;;;;;8.60;6.63;;;;;;;;;;4930757;29;20032;-79
2023/04/07 13:31:32;;;;;;;9.18;6.47;;;;;;;;;;4916092;29;20087;-78
2023/04/07 13:33:58;;;;;;;9.40;6.70;;;;;;;;;;4920132;29;20383;-78
2023/04/07 13:36:26;;;;;;;9.75;6.22;;;;;;;;;;4933137;29;20035;-78
2023/04/07 13:38:52;;;;;;;10.05;7.18;;;;;;;;;;4915739;29;20078;-78
2023/04/07 13:41:18;;;;;;;15.40;9.52;;;;;;;;;;4932699;29;20020;-78
2023/04/07 13:43:44;;;;;;;7.72;6.20;;;;;;;;;;4932827;29;20383;-79
2023/04/07 13:46:14;;;;;;;5.97;4.78;;;;;;;;;;4933434;29;20020;-79
2023/04/07 13:48:41;;;;;;;5.38;4.80;;;;;;;;;;4933490;29;20031;-79
2023/04/07 13:51:07;;;;;;;5.88;4.47;;;;;;;;;;4933902;29;20479;-79
2023/04/07 13:53:33;;;;;;;6.70;5.32;;;;;;;;;;4933603;29;20031;-79
2023/04/07 13:55:59;;;;;;;6.18;4.90;;;;;;;;;;4916347;29;20038;-79
2023/04/07 13:58:25;;;;;;;6.80;5.13;;;;;;;;;;4932260;29;20052;-79
2023/04/07 14:00:51;;;;;;;9.07;5.88;;;;;;;;;;4932000;29;20035;-79
2023/04/07 14:03:17;;;;;;;7.03;5.13;;;;;;;;;;4934878;29;20506;-78
2023/04/07 14:05:43;;;;;;;7.25;5.65;;;;;;;;;;4936303;29;20027;-78
2023/04/07 14:08:09;;;;;;;8.52;6.53;;;;;;;;;;4935503;29;20031;-78
2023/04/07 14:10:35;;;;;;;7.82;5.97;;;;;;;;;;4935922;29;20034;-78
2023/04/07 14:13:01;;;;;;;8.10;6.25;;;;;;;;;;4918592;29;20099;-78
2023/04/07 14:15:27;;;;;;;8.30;6.40;;;;;;;;;;4935559;29;20036;-78
2023/04/07 14:17:53;;;;;;;8.07;6.18;;;;;;;;;;4935307;29;20074;-78
2023/04/07 14:20:20;;;;;;;8.05;5.88;;;;;;;;;;4934387;29;20039;-78
2023/04/07 14:22:46;;;;;;;7.80;6.47;;;;;;;;;;4935444;29;20036;-78
2023/04/07 14:25:12;;;;;;;7.57;6.43;;;;;;;;;;4934731;29;20172;-76